Time;durP1;ratioP1;P1;durP2;ratioP2;P2;SDS_P1;SDS_P2;PMS_P1;PMS_P2;Temp;Humidity;BMP_temperature;BMP_pressure;BME280_temperature;BME280_humidity;BME280_pressure;Samples;Min_cycle;Max_cycle;Signal;HPM_P1;HPM_P2
2021/01/08 00:01:06;;;;;;;18.33;7.83;;;1.50;99.90;;;;;;5078638;27;20444;-68
2021/01/08 00:03:32;;;;;;;12.73;6.50;;;1.50;99.90;;;;;;5070861;28;20226;-68
2021/01/08 00:05:57;;;;;;;12.60;6.33;;;1.50;99.90;;;;;;5069710;28;20215;-68
2021/01/08 00:08:23;;;;;;;12.17;7.87;;;1.50;99.90;;;;;;5090182;27;20214;-69
2021/01/08 00:10:49;;;;;;;19.60;9.93;;;1.60;99.90;;;;;;5089918;28;20233;-69
2021/01/08 00:13:15;;;;;;;18.00;9.90;;;1.50;99.90;;;;;;5078919;28;20214;-68
2021/01/08 00:15:40;;;;;;;19.20;10.60;;;1.50;99.90;;;;;;5076628;27;20602;-69
2021/01/08 00:18:06;;;;;;;12.90;9.40;;;1.50;99.90;;;;;;5083334;28;20452;-68
2021/01/08 00:20:32;;;;;;;15.30;10.03;;;1.50;99.90;;;;;;5086135;28;20211;-68
2021/01/08 00:22:58;;;;;;;9.17;6.90;;;1.50;99.90;;;;;;5106708;27;20228;-68
2021/01/08 00:25:23;;;;;;;12.70;7.77;;;1.50;99.90;;;;;;5081216;28;20664;-68
2021/01/08 00:27:49;;;;;;;17.43;7.30;;;1.50;99.90;;;;;;5074558;28;20211;-68
2021/01/08 00:30:15;;;;;;;14.07;6.60;;;1.50;99.90;;;;;;5071675;28;20671;-68
2021/01/08 00:32:40;;;;;;;9.07;5.20;;;1.40;99.90;;;;;;5103412;28;20265;-68
2021/01/08 00:35:08;;;;;;;12.17;6.37;;;1.40;99.90;;;;;;5085294;28;20472;-68
2021/01/08 00:37:57;;;;;;;10.93;6.73;;;1.50;99.90;;;;;;5101089;27;20223;-68
2021/01/08 00:40:23;;;;;;;13.70;6.80;;;1.50;99.90;;;;;;5087462;28;20452;-69
2021/01/08 00:43:18;;;;;;;13.57;7.40;;;1.50;99.90;;;;;;5055434;28;20469;-67
2021/01/08 00:45:43;;;;;;;14.17;7.40;;;1.40;99.90;;;;;;5091271;28;20227;-68
2021/01/08 00:48:09;;;;;;;11.90;6.40;;;1.50;99.90;;;;;;5087844;28;20440;-68
2021/01/08 00:50:35;;;;;;;10.30;6.10;;;1.50;99.90;;;;;;5090104;28;20221;-67
2021/01/08 00:53:01;;;;;;;14.00;6.40;;;1.50;99.90;;;;;;5087696;28;20445;-67
2021/01/08 00:55:27;;;;;;;7.90;5.73;;;1.40;99.90;;;;;;5076650;27;20476;-67
2021/01/08 00:58:00;;;;;;;10.23;4.93;;;1.50;99.90;;;;;;5061481;28;20211;-67
2021/01/08 01:00:26;;;;;;;7.10;3.80;;;1.40;99.90;;;;;;5059727;28;20501;-67
2021/01/08 01:02:52;;;;;;;17.83;6.30;;;1.40;99.90;;;;;;5072501;28;20219;-67
2021/01/08 01:05:18;;;;;;;15.50;6.33;;;1.40;99.90;;;;;;5086129;28;20218;-66
2021/01/08 01:07:43;;;;;;;12.20;5.40;;;1.40;99.90;;;;;;5055983;28;20269;-68
2021/01/08 01:10:09;;;;;;;7.97;5.50;;;1.40;99.90;;;;;;5048695;28;20642;-67
2021/01/08 01:12:35;;;;;;;8.60;5.20;;;1.40;99.90;;;;;;5076684;28;20252;-67
2021/01/08 01:15:01;;;;;;;11.23;6.80;;;1.40;99.90;;;;;;5074411;28;20452;-68
2021/01/08 01:17:27;;;;;;;13.23;5.27;;;1.40;99.90;;;;;;5076068;28;20635;-67
2021/01/08 01:19:54;;;;;;;7.80;4.90;;;1.50;99.90;;;;;;5082649;27;20443;-67
2021/01/08 01:22:19;;;;;;;11.13;5.60;;;1.50;99.90;;;;;;5097050;27;20214;-67
2021/01/08 01:24:45;;;;;;;8.93;5.37;;;1.50;99.90;;;;;;5083120;28;20440;-67
2021/01/08 01:27:11;;;;;;;12.87;6.47;;;1.50;99.90;;;;;;5076130;28;20214;-67
2021/01/08 01:29:36;;;;;;;12.20;5.70;;;1.50;99.90;;;;;;5075742;28;20226;-68
2021/01/08 01:32:02;;;;;;;12.60;5.87;;;1.50;99.90;;;;;;5092285;28;20215;-68
2021/01/08 01:34:28;;;;;;;9.60;5.77;;;1.50;99.90;;;;;;5059530;28;20284;-67
2021/01/08 01:36:53;;;;;;;6.30;4.10;;;1.50;99.90;;;;;;5092775;28;20246;-67
2021/01/08 01:39:19;;;;;;;6.43;4.57;;;1.50;99.90;;;;;;5093404;28;20697;-67
2021/01/08 01:41:45;;;;;;;7.03;4.63;;;1.50;99.90;;;;;;5063362;28;20315;-67
2021/01/08 01:44:10;;;;;;;6.33;3.83;;;1.50;99.90;;;;;;5092603;28;20242;-68
2021/01/08 01:46:36;;;;;;;4.70;4.07;;;1.50;99.90;;;;;;5058510;28;20223;-68
2021/01/08 01:49:02;;;;;;;7.33;4.57;;;1.50;99.90;;;;;;5060107;28;20693;-67
2021/01/08 01:51:28;;;;;;;8.60;4.33;;;1.50;99.90;;;;;;5081833;28;20309;-68
2021/01/08 01:53:54;;;;;;;7.67;4.33;;;1.50;99.90;;;;;;5075389;28;20309;-67
2021/01/08 01:56:20;;;;;;;6.50;4.10;;;1.50;99.90;;;;;;5104488;28;20525;-67
2021/01/08 01:58:45;;;;;;;6.00;3.80;;;1.50;99.90;;;;;;5094301;28;20219;-67
2021/01/08 02:01:11;;;;;;;7.77;5.27;;;1.40;99.90;;;;;;5062001;28;20218;-67
2021/01/08 02:03:49;;;;;;;7.87;4.43;;;1.40;99.90;;;;;;5092742;28;20205;-68
2021/01/08 02:06:18;;;;;;;8.40;4.43;;;1.40;99.90;;;;;;5075567;28;20449;-68
2021/01/08 02:08:47;;;;;;;7.03;3.70;;;1.40;99.90;;;;;;5058768;28;20512;-67
2021/01/08 02:11:21;;;;;;;4.13;3.70;;;1.40;99.90;;;;;;5087205;28;20448;-67
2021/01/08 02:14:05;;;;;;;6.60;4.33;;;1.40;99.90;;;;;;5091921;28;20452;-67
2021/01/08 02:16:33;;;;;;;9.00;4.67;;;1.50;99.90;;;;;;5074871;28;20459;-67
2021/01/08 02:18:59;;;;;;;6.17;3.70;;;1.50;99.90;;;;;;5068007;28;20465;-69
2021/01/08 02:21:33;;;;;;;6.60;4.40;;;1.50;99.90;;;;;;5072146;28;20449;-70
2021/01/08 02:24:13;;;;;;;7.53;3.60;;;1.50;99.90;;;;;;5071836;28;20450;-68
2021/01/08 02:26:40;;;;;;;8.30;3.90;;;1.50;99.90;;;;;;5089242;28;20465;-67
2021/01/08 02:29:06;;;;;;;5.00;3.40;;;1.40;99.90;;;;;;5086550;28;20528;-67
2021/01/08 02:31:32;;;;;;;5.23;3.10;;;1.50;99.90;;;;;;5039062;28;20544;-68
2021/01/08 02:33:58;;;;;;;6.47;4.70;;;1.50;99.90;;;;;;5071847;28;20466;-67
2021/01/08 02:36:26;;;;;;;5.57;3.50;;;1.40;99.90;;;;;;5055342;28;20262;-67
2021/01/08 02:38:53;;;;;;;5.20;3.53;;;1.40;99.90;;;;;;5067871;28;20442;-69
2021/01/08 02:41:20;;;;;;;6.37;4.13;;;1.50;99.90;;;;;;5109741;28;20452;-67
2021/01/08 02:43:47;;;;;;;6.87;4.03;;;1.50;99.90;;;;;;5076191;28;20568;-67
2021/01/08 02:46:13;;;;;;;8.20;3.50;;;1.50;99.90;;;;;;5078995;28;20467;-67
2021/01/08 02:48:39;;;;;;;6.80;4.77;;;1.50;99.90;;;;;;5075581;28;20452;-68
2021/01/08 02:51:05;;;;;;;7.93;4.17;;;1.50;99.90;;;;;;5074614;28;20976;-67
2021/01/08 02:53:32;;;;;;;5.73;3.70;;;1.50;99.90;;;;;;5060665;28;20211;-67
2021/01/08 02:56:15;;;;;;;5.40;4.13;;;1.50;99.90;;;;;;5077997;28;20226;-67
2021/01/08 02:58:42;;;;;;;8.80;3.40;;;1.50;99.90;;;;;;5090711;28;20539;-67
2021/01/08 03:01:09;;;;;;;5.23;3.80;;;1.50;99.90;;;;;;5075655;28;20452;-67
2021/01/08 03:03:35;;;;;;;6.70;4.10;;;1.60;99.90;;;;;;5070417;28;20945;-67
2021/01/08 03:06:02;;;;;;;9.30;4.70;;;1.50;99.90;;;;;;5078612;28;20455;-67
2021/01/08 03:08:29;;;;;;;4.10;3.30;;;1.50;99.90;;;;;;5079476;28;20456;-67
2021/01/08 03:10:59;;;;;;;4.70;2.70;;;1.60;99.90;;;;;;5070716;28;20456;-67
2021/01/08 03:13:30;;;;;;;6.80;3.90;;;1.60;99.90;;;;;;5074876;28;20477;-68
2021/01/08 03:15:56;;;;;;;7.03;4.03;;;1.50;99.90;;;;;;5061830;28;20606;-67
2021/01/08 03:18:22;;;;;;;4.87;3.80;;;1.50;99.90;;;;;;5062065;28;20544;-67
2021/01/08 03:20:48;;;;;;;4.13;3.27;;;1.50;99.90;;;;;;5095086;28;20222;-67
2021/01/08 03:23:13;;;;;;;6.63;3.63;;;1.50;99.90;;;;;;5078722;28;20214;-68
2021/01/08 03:25:39;;;;;;;8.57;4.07;;;1.50;99.90;;;;;;5078103;28;20237;-68
2021/01/08 03:28:04;;;;;;;5.83;3.37;;;1.50;99.90;;;;;;5071790;28;20219;-67
2021/01/08 03:30:31;;;;;;;6.70;4.60;;;1.60;99.90;;;;;;5055387;28;20214;-67
2021/01/08 03:32:56;;;;;;;7.33;3.80;;;1.50;99.90;;;;;;5077904;28;20249;-67
2021/01/08 03:35:22;;;;;;;6.43;4.00;;;1.50;99.90;;;;;;5078490;28;20992;-67
2021/01/08 03:37:48;;;;;;;7.00;2.50;;;1.50;99.90;;;;;;5061592;28;20679;-67
2021/01/08 03:40:14;;;;;;;4.13;3.23;;;1.60;99.90;;;;;;5052746;28;20215;-68
2021/01/08 03:42:39;;;;;;;3.27;2.70;;;1.50;99.90;;;;;;5043730;28;20770;-68
2021/01/08 03:45:06;;;;;;;3.87;2.77;;;1.50;99.90;;;;;;5061347;28;20234;-68
2021/01/08 03:47:31;;;;;;;4.63;2.90;;;1.50;99.90;;;;;;5078199;27;20218;-68
2021/01/08 03:49:57;;;;;;;4.30;2.37;;;1.50;99.90;;;;;;5107727;28;20456;-67
2021/01/08 03:52:23;;;;;;;4.77;3.27;;;1.50;99.90;;;;;;5090952;28;20223;-67
2021/01/08 03:54:48;;;;;;;5.20;3.30;;;1.50;99.90;;;;;;5074461;28;20223;-67
2021/01/08 03:57:14;;;;;;;5.90;3.00;;;1.50;99.90;;;;;;5063157;28;20218;-67
2021/01/08 03:59:40;;;;;;;4.30;3.00;;;1.50;99.90;;;;;;5094262;28;20224;-68
2021/01/08 04:02:06;;;;;;;4.37;2.87;;;1.60;99.90;;;;;;5062397;28;20231;-67
2021/01/08 04:04:31;;;;;;;7.83;4.07;;;1.60;99.90;;;;;;5052591;28;20223;-66
2021/01/08 04:06:57;;;;;;;5.37;3.03;;;1.50;99.90;;;;;;5073979;28;20567;-67
2021/01/08 04:09:23;;;;;;;6.20;3.10;;;1.60;99.90;;;;;;5041750;28;20219;-68
2021/01/08 04:11:48;;;;;;;4.90;3.00;;;1.60;99.90;;;;;;5047448;28;20671;-67
2021/01/08 04:14:14;;;;;;;3.17;2.87;;;1.60;99.90;;;;;;5066287;28;20231;-67
2021/01/08 04:16:41;;;;;;;5.03;3.33;;;1.60;99.90;;;;;;5076634;28;20309;-67
2021/01/08 04:19:10;;;;;;;4.00;2.70;;;1.50;99.90;;;;;;5074176;28;20211;-67
2021/01/08 04:21:37;;;;;;;3.00;2.60;;;1.60;99.90;;;;;;5059547;28;20460;-68
2021/01/08 04:24:04;;;;;;;6.70;3.30;;;1.60;99.90;;;;;;5094198;28;20433;-67
2021/01/08 04:26:30;;;;;;;5.77;3.73;;;1.60;99.90;;;;;;5078061;28;20452;-68
2021/01/08 04:28:56;;;;;;;4.60;2.60;;;1.60;99.90;;;;;;5074528;28;20463;-67
2021/01/08 04:31:22;;;;;;;4.00;2.87;;;1.60;99.90;;;;;;5104280;28;20463;-68
2021/01/08 04:33:48;;;;;;;5.37;3.40;;;1.60;99.90;;;;;;5069872;28;20451;-68
2021/01/08 04:36:14;;;;;;;3.20;2.50;;;1.50;99.90;;;;;;5112225;27;20467;-67
2021/01/08 04:38:40;;;;;;;4.67;2.80;;;1.60;99.90;;;;;;5072985;28;20457;-67
2021/01/08 04:41:07;;;;;;;4.40;3.07;;;1.50;99.90;;;;;;5076736;28;20805;-67
2021/01/08 04:43:34;;;;;;;4.03;3.10;;;1.50;99.90;;;;;;5063569;28;21011;-68
2021/01/08 04:46:06;;;;;;;2.67;1.90;;;1.50;99.90;;;;;;5093091;28;20449;-68
2021/01/08 04:48:32;;;;;;;3.87;2.23;;;1.50;99.90;;;;;;5091660;28;20930;-68
2021/01/08 04:51:02;;;;;;;5.33;2.93;;;1.50;99.90;;;;;;5071913;28;20491;-68
2021/01/08 04:53:30;;;;;;;6.07;3.57;;;1.50;99.90;;;;;;5077517;28;20448;-67
2021/01/08 04:55:59;;;;;;;8.07;3.73;;;1.50;99.90;;;;;;5092692;28;20500;-67
2021/01/08 04:58:30;;;;;;;2.90;2.27;;;1.50;99.90;;;;;;5076805;28;20452;-67
2021/01/08 05:00:56;;;;;;;5.07;2.80;;;1.50;99.90;;;;;;5076273;28;20459;-67
2021/01/08 05:03:22;;;;;;;4.30;2.57;;;1.50;99.90;;;;;;5065998;28;20977;-67
2021/01/08 05:05:47;;;;;;;5.43;2.73;;;1.50;99.90;;;;;;5090052;28;20460;-67
2021/01/08 05:08:13;;;;;;;7.70;3.63;;;1.50;99.90;;;;;;5060557;28;20459;-67
2021/01/08 05:10:39;;;;;;;6.57;3.20;;;1.50;99.90;;;;;;5059657;27;20218;-67
2021/01/08 05:13:04;;;;;;;6.00;3.53;;;1.50;99.90;;;;;;5088599;28;20237;-68
2021/01/08 05:15:30;;;;;;;4.47;2.97;;;1.50;99.90;;;;;;5076174;28;20235;-67
2021/01/08 05:17:56;;;;;;;5.03;4.17;;;1.50;99.90;;;;;;5088066;28;20317;-68
2021/01/08 05:20:22;;;;;;;4.17;2.87;;;1.60;99.90;;;;;;5108961;27;20240;-67
2021/01/08 05:22:50;;;;;;;4.80;2.53;;;1.60;99.90;;;;;;5096749;27;20217;-68
2021/01/08 05:25:17;;;;;;;3.90;2.80;;;1.50;99.90;;;;;;5106481;28;20456;-67
2021/01/08 05:27:42;;;;;;;5.03;2.73;;;1.50;99.90;;;;;;5076331;28;20444;-68
2021/01/08 05:30:23;;;;;;;4.80;2.80;;;1.50;99.90;;;;;;5076146;28;20525;-67
2021/01/08 05:32:57;;;;;;;11.60;3.90;;;1.50;99.90;;;;;;5059327;28;20494;-68
2021/01/08 05:35:23;;;;;;;3.43;2.53;;;1.50;99.90;;;;;;5066572;28;20503;-67
2021/01/08 05:37:53;;;;;;;5.60;3.30;;;1.50;99.90;;;;;;5070059;28;20453;-67
2021/01/08 05:40:25;;;;;;;3.53;2.50;;;1.50;99.90;;;;;;5089581;28;20480;-68
2021/01/08 05:42:58;;;;;;;2.40;2.10;;;1.50;99.90;;;;;;5096657;27;20505;-69
2021/01/08 05:45:25;;;;;;;3.80;2.73;;;1.50;99.90;;;;;;5093733;28;20448;-68
2021/01/08 05:47:53;;;;;;;4.70;4.10;;;1.50;99.90;;;;;;5059350;28;20460;-68
2021/01/08 05:50:22;;;;;;;7.90;5.83;;;1.50;99.90;;;;;;5076012;28;20460;-67
2021/01/08 05:52:54;;;;;;;6.00;4.30;;;1.50;99.90;;;;;;5084327;28;20452;-67
2021/01/08 05:55:20;;;;;;;4.50;3.47;;;1.50;99.90;;;;;;5077696;28;20533;-68
2021/01/08 05:57:46;;;;;;;5.73;3.87;;;1.50;99.90;;;;;;5098111;28;20452;-69
2021/01/08 06:00:12;;;;;;;6.40;3.70;;;1.50;99.90;;;;;;5056251;28;20510;-68
2021/01/08 06:02:38;;;;;;;8.93;4.83;;;1.50;99.90;;;;;;5078177;27;20316;-69
2021/01/08 06:05:08;;;;;;;10.27;5.30;;;1.50;99.90;;;;;;5083939;28;20459;-68
2021/01/08 06:07:38;;;;;;;8.70;3.90;;;1.50;99.90;;;;;;5073086;28;20518;-70
2021/01/08 06:10:06;;;;;;;5.07;4.10;;;1.50;99.90;;;;;;5081509;28;20448;-68
2021/01/08 06:12:37;;;;;;;10.93;5.33;;;1.50;99.90;;;;;;5078691;28;20448;-68
2021/01/08 06:15:07;;;;;;;6.87;4.73;;;1.50;99.90;;;;;;5088780;28;20448;-69
2021/01/08 06:17:33;;;;;;;9.30;5.10;;;1.50;99.90;;;;;;5075897;28;20456;-69
2021/01/08 06:20:03;;;;;;;5.40;3.40;;;1.50;99.90;;;;;;5071538;28;20537;-70
2021/01/08 06:22:40;;;;;;;8.83;5.87;;;1.50;99.90;;;;;;5072655;28;20448;-69
2021/01/08 06:25:10;;;;;;;11.10;4.93;;;1.40;99.90;;;;;;5084849;28;20453;-69
2021/01/08 06:27:37;;;;;;;7.73;3.90;;;1.40;99.90;;;;;;5064573;28;20458;-70
2021/01/08 06:30:07;;;;;;;6.30;4.97;;;1.50;99.90;;;;;;5082267;28;20440;-70
2021/01/08 06:32:33;;;;;;;6.60;5.40;;;1.50;99.90;;;;;;5099219;28;20517;-70
2021/01/08 06:35:18;;;;;;;6.20;5.10;;;1.50;99.90;;;;;;5082034;28;20464;-69
2021/01/08 06:37:44;;;;;;;8.30;5.23;;;1.40;99.90;;;;;;5092867;28;20448;-69
2021/01/08 06:40:12;;;;;;;5.23;4.70;;;1.50;99.90;;;;;;5080286;27;20450;-68
2021/01/08 06:42:46;;;;;;;3.87;3.47;;;1.50;99.90;;;;;;5088499;28;20214;-67
2021/01/08 06:45:15;;;;;;;10.90;6.60;;;1.50;99.90;;;;;;5086162;28;20458;-68
2021/01/08 06:47:47;;;;;;;15.93;8.90;;;1.40;99.90;;;;;;5093914;28;20453;-67
2021/01/08 06:50:22;;;;;;;20.60;10.53;;;1.40;99.90;;;;;;5111104;27;20794;-68
2021/01/08 06:52:49;;;;;;;13.93;8.70;;;1.40;99.90;;;;;;5052677;28;20456;-68
2021/01/08 06:55:17;;;;;;;24.77;13.43;;;1.40;99.90;;;;;;5096190;28;20539;-68
2021/01/08 06:57:53;;;;;;;22.00;11.07;;;1.40;99.90;;;;;;5078913;28;20964;-68
2021/01/08 07:00:27;;;;;;;25.50;12.60;;;1.40;99.90;;;;;;5091002;28;20456;-67
2021/01/08 07:02:58;;;;;;;21.63;11.93;;;1.40;99.90;;;;;;5085268;27;20893;-68
2021/01/08 07:05:24;;;;;;;15.97;11.43;;;1.40;99.90;;;;;;5088796;28;20462;-67
2021/01/08 07:07:51;;;;;;;18.63;13.13;;;1.40;99.90;;;;;;5109505;27;20539;-68
2021/01/08 07:10:18;;;;;;;15.77;10.97;;;1.40;99.90;;;;;;5076171;28;20463;-67
2021/01/08 07:12:44;;;;;;;10.40;8.03;;;1.40;99.90;;;;;;5068655;28;21112;-68
2021/01/08 07:15:12;;;;;;;9.53;7.30;;;1.40;99.90;;;;;;5069705;28;20474;-68
2021/01/08 07:17:39;;;;;;;8.60;6.03;;;1.40;99.90;;;;;;5079177;28;20236;-68
2021/01/08 07:20:07;;;;;;;5.47;4.50;;;1.40;99.90;;;;;;5086401;28;20468;-68
2021/01/08 07:22:39;;;;;;;3.93;2.93;;;1.40;99.90;;;;;;5078975;28;20452;-67
2021/01/08 07:25:13;;;;;;;8.13;3.87;;;1.40;99.90;;;;;;5095245;28;20432;-67
2021/01/08 07:27:43;;;;;;;13.87;7.33;;;1.40;99.90;;;;;;5078692;28;20848;-68
2021/01/08 07:30:10;;;;;;;20.70;11.60;;;1.40;99.90;;;;;;5069404;28;20475;-67
2021/01/08 07:32:37;;;;;;;10.50;7.30;;;1.40;99.90;;;;;;5078671;28;20498;-68
2021/01/08 07:35:20;;;;;;;8.17;6.03;;;1.30;99.90;;;;;;5094785;28;20453;-67
2021/01/08 07:38:06;;;;;;;6.53;4.97;;;1.30;99.90;;;;;;5063925;28;20445;-68
2021/01/08 07:40:39;;;;;;;4.30;3.90;;;1.40;99.90;;;;;;5083523;28;20494;-68
2021/01/08 07:43:07;;;;;;;4.70;4.07;;;1.40;99.90;;;;;;5060042;28;20821;-67
2021/01/08 07:45:51;;;;;;;7.53;4.37;;;1.40;99.90;;;;;;5095195;28;20472;-68
2021/01/08 07:48:34;;;;;;;12.40;7.20;;;1.30;99.90;;;;;;5095240;28;20456;-67
2021/01/08 07:51:06;;;;;;;13.53;6.13;;;1.30;99.90;;;;;;5074245;28;20446;-67
2021/01/08 07:53:44;;;;;;;6.10;4.03;;;1.30;99.90;;;;;;5098413;28;21051;-68
2021/01/08 07:56:17;;;;;;;7.37;4.17;;;1.30;99.90;;;;;;5094400;28;20506;-67
2021/01/08 07:58:45;;;;;;;6.43;4.17;;;1.30;99.90;;;;;;5111862;28;20991;-68
2021/01/08 08:01:12;;;;;;;5.80;3.83;;;1.30;99.90;;;;;;5079191;28;20450;-67
2021/01/08 08:03:40;;;;;;;5.83;4.23;;;1.30;99.90;;;;;;5077864;28;20448;-67
2021/01/08 08:06:06;;;;;;;6.57;4.00;;;1.30;99.90;;;;;;5060620;28;20457;-68
2021/01/08 08:08:33;;;;;;;5.50;3.77;;;1.30;99.90;;;;;;5077601;28;20543;-68
2021/01/08 08:11:16;;;;;;;6.10;3.03;;;1.30;99.90;;;;;;5059687;28;20456;-68
2021/01/08 08:13:44;;;;;;;3.60;2.67;;;1.30;99.90;;;;;;5087826;28;20448;-68
2021/01/08 08:16:10;;;;;;;7.40;4.30;;;1.30;99.90;;;;;;5081291;28;20465;-68
2021/01/08 08:18:52;;;;;;;6.60;3.70;;;1.30;99.90;;;;;;5067198;28;20460;-68
2021/01/08 08:21:18;;;;;;;5.70;3.50;;;1.30;99.90;;;;;;5086778;28;20987;-68
2021/01/08 08:23:54;;;;;;;10.90;6.53;;;1.30;99.90;;;;;;5087657;28;20456;-68
2021/01/08 08:26:20;;;;;;;14.03;6.90;;;1.30;99.90;;;;;;5044560;28;20452;-68
2021/01/08 08:29:07;;;;;;;6.40;4.43;;;1.30;99.90;;;;;;5093857;28;20532;-68
2021/01/08 08:31:38;;;;;;;8.67;4.50;;;1.30;99.90;;;;;;5093256;28;20547;-68
2021/01/08 08:34:05;;;;;;;6.07;3.00;;;1.30;99.90;;;;;;5076485;28;20443;-68
2021/01/08 08:36:32;;;;;;;5.67;3.90;;;1.30;99.90;;;;;;5077192;28;20463;-67
2021/01/08 08:39:05;;;;;;;6.37;2.97;;;1.30;99.90;;;;;;5091186;28;20453;-68
2021/01/08 08:41:32;;;;;;;8.90;3.80;;;1.40;99.90;;;;;;5084698;28;20455;-68
2021/01/08 08:44:24;;;;;;;6.87;4.10;;;1.40;99.90;;;;;;5079596;28;20459;-69
2021/01/08 08:46:55;;;;;;;8.40;5.00;;;1.40;99.90;;;;;;5082706;28;20509;-69
2021/01/08 08:49:28;;;;;;;10.50;6.60;;;1.30;99.90;;;;;;5071917;28;20467;-68
2021/01/08 08:51:55;;;;;;;6.20;4.60;;;1.40;99.90;;;;;;5092187;28;20505;-67
2021/01/08 08:54:23;;;;;;;6.60;4.27;;;1.40;99.90;;;;;;5093105;28;20455;-68
2021/01/08 08:57:02;;;;;;;5.57;4.47;;;1.40;99.90;;;;;;5074618;28;20445;-67
2021/01/08 08:59:45;;;;;;;7.73;3.90;;;1.40;99.90;;;;;;5111974;28;20449;-68
2021/01/08 09:02:27;;;;;;;7.50;5.00;;;1.40;99.90;;;;;;5088734;27;20451;-68
2021/01/08 09:04:57;;;;;;;5.70;4.50;;;1.40;99.90;;;;;;5075992;28;20456;-69
2021/01/08 09:07:43;;;;;;;6.93;4.60;;;1.40;99.90;;;;;;5047433;28;20532;-68
2021/01/08 09:10:14;;;;;;;6.80;3.97;;;1.40;99.90;;;;;;5089973;28;20479;-68
2021/01/08 09:12:53;;;;;;;5.67;4.07;;;1.40;99.90;;;;;;5093626;28;20478;-68
2021/01/08 09:15:41;;;;;;;6.50;4.30;;;1.40;99.90;;;;;;5092660;28;20472;-69
2021/01/08 09:18:31;;;;;;;5.80;4.53;;;1.40;99.90;;;;;;5092429;28;20448;-68
2021/01/08 09:21:16;;;;;;;11.20;6.30;;;1.40;99.90;;;;;;5075167;28;20453;-68
2021/01/08 09:23:46;;;;;;;8.30;5.50;;;1.40;99.90;;;;;;5104289;28;20460;-67
2021/01/08 09:26:17;;;;;;;16.93;8.30;;;1.40;99.90;;;;;;5076637;28;20553;-67
2021/01/08 09:28:49;;;;;;;13.73;7.17;;;1.40;99.90;;;;;;5111174;28;20447;-68
2021/01/08 09:31:15;;;;;;;10.67;5.30;;;1.40;99.90;;;;;;5072597;28;20491;-68
2021/01/08 09:33:41;;;;;;;9.20;5.60;;;1.40;99.90;;;;;;5075630;28;20480;-68
2021/01/08 09:36:07;;;;;;;8.97;5.20;;;1.50;99.90;;;;;;5076036;28;20222;-68
2021/01/08 09:38:34;;;;;;;8.10;5.40;;;1.50;99.90;;;;;;5111818;28;20271;-68
2021/01/08 09:41:00;;;;;;;9.83;5.77;;;1.50;99.90;;;;;;5076170;28;20460;-68
2021/01/08 09:43:25;;;;;;;10.10;5.90;;;1.50;99.90;;;;;;5070597;28;20452;-68
2021/01/08 09:46:05;;;;;;;6.90;5.23;;;1.50;99.90;;;;;;5075717;28;20228;-67
2021/01/08 09:48:31;;;;;;;7.80;5.17;;;1.50;99.90;;;;;;5055343;28;20238;-68
2021/01/08 09:51:02;;;;;;;5.40;4.17;;;1.50;99.90;;;;;;5091296;28;20546;-68
2021/01/08 09:53:27;;;;;;;5.63;4.50;;;1.60;99.90;;;;;;5098911;28;20503;-68
2021/01/08 09:55:53;;;;;;;7.77;5.07;;;1.60;99.90;;;;;;5057928;28;20992;-68
2021/01/08 09:58:19;;;;;;;6.80;4.23;;;1.60;99.90;;;;;;5075129;28;20695;-68
2021/01/08 10:00:49;;;;;;;4.47;3.73;;;1.60;99.90;;;;;;5064717;28;20242;-69
2021/01/08 10:03:19;;;;;;;8.17;4.70;;;1.60;99.90;;;;;;5082409;28;20215;-68
2021/01/08 10:05:45;;;;;;;13.00;7.60;;;1.60;99.90;;;;;;5073651;28;20457;-69
2021/01/08 10:08:21;;;;;;;15.77;9.50;;;1.60;99.90;;;;;;5075328;28;20447;-68
2021/01/08 10:10:48;;;;;;;25.43;14.07;;;1.70;99.90;;;;;;5075125;28;20221;-68
2021/01/08 10:13:15;;;;;;;16.67;10.87;;;1.70;99.90;;;;;;5075461;28;20452;-68
2021/01/08 10:15:47;;;;;;;20.00;11.80;;;1.70;99.90;;;;;;5072966;28;20496;-68
2021/01/08 10:18:25;;;;;;;16.07;10.87;;;1.70;99.90;;;;;;5074753;28;21035;-68
2021/01/08 10:20:51;;;;;;;10.93;7.33;;;1.70;99.90;;;;;;5083322;28;20937;-68
2021/01/08 10:23:20;;;;;;;10.83;6.20;;;1.70;99.90;;;;;;5091554;28;20474;-68
2021/01/08 10:25:46;;;;;;;6.30;4.70;;;1.80;99.90;;;;;;5077819;28;20847;-68
2021/01/08 10:28:14;;;;;;;8.67;4.53;;;1.80;99.90;;;;;;5045217;28;20462;-68
2021/01/08 10:30:41;;;;;;;8.30;4.10;;;1.80;99.90;;;;;;5071086;28;20906;-68
2021/01/08 10:33:07;;;;;;;6.57;4.03;;;1.90;99.90;;;;;;5074971;28;20539;-69
2021/01/08 10:35:33;;;;;;;13.40;5.90;;;1.90;99.90;;;;;;5073308;28;20473;-69
2021/01/08 10:37:59;;;;;;;8.30;6.03;;;1.90;99.90;;;;;;5054358;28;20453;-68
2021/01/08 10:40:25;;;;;;;8.23;5.40;;;1.90;99.90;;;;;;5091106;28;20451;-69
2021/01/08 10:42:52;;;;;;;5.73;4.90;;;2.00;99.90;;;;;;5081416;28;21046;-67
2021/01/08 10:45:17;;;;;;;7.97;4.87;;;2.00;99.90;;;;;;5094109;28;20229;-68
2021/01/08 10:47:44;;;;;;;8.07;5.43;;;2.10;99.90;;;;;;5094639;28;20445;-69
2021/01/08 10:50:11;;;;;;;8.60;5.30;;;2.10;99.90;;;;;;5090888;28;20240;-68
2021/01/08 10:52:36;;;;;;;7.27;5.20;;;2.10;99.90;;;;;;5057422;28;20454;-68
2021/01/08 10:55:04;;;;;;;9.47;6.00;;;2.20;99.90;;;;;;5073672;28;20517;-68
2021/01/08 10:57:29;;;;;;;6.33;5.10;;;2.20;99.90;;;;;;5089862;28;20225;-68
2021/01/08 10:59:55;;;;;;;9.20;5.50;;;2.20;99.90;;;;;;5077551;28;20453;-69
2021/01/08 11:02:20;;;;;;;8.43;5.77;;;2.20;99.90;;;;;;5091576;28;20232;-68
2021/01/08 11:04:46;;;;;;;12.90;7.00;;;2.20;99.90;;;;;;5074476;28;20252;-69
2021/01/08 11:07:12;;;;;;;9.20;6.13;;;2.30;99.90;;;;;;5066090;28;20222;-68
2021/01/08 11:09:37;;;;;;;18.77;11.67;;;2.30;99.90;;;;;;5058369;28;20214;-68
2021/01/08 11:12:04;;;;;;;18.43;13.10;;;2.30;99.90;;;;;;5065436;28;20207;-68
2021/01/08 11:14:30;;;;;;;11.03;7.17;;;2.30;99.90;;;;;;5085711;28;20225;-68
2021/01/08 11:16:56;;;;;;;10.43;6.50;;;2.30;99.90;;;;;;5095491;28;20475;-69
2021/01/08 11:19:21;;;;;;;9.50;7.00;;;2.30;99.90;;;;;;5079085;28;20210;-68
2021/01/08 11:21:51;;;;;;;15.63;8.23;;;2.30;99.90;;;;;;5064600;28;20734;-68
2021/01/08 11:24:17;;;;;;;9.23;6.37;;;2.40;99.90;;;;;;5095745;28;20282;-67
2021/01/08 11:26:43;;;;;;;10.90;6.77;;;2.40;99.90;;;;;;5074743;28;20972;-68
2021/01/08 11:29:08;;;;;;;11.30;5.67;;;2.40;99.90;;;;;;5075014;28;20302;-68
2021/01/08 11:31:38;;;;;;;8.80;4.50;;;2.40;99.90;;;;;;5074097;28;20718;-69
2021/01/08 11:34:05;;;;;;;9.00;4.30;;;2.40;99.90;;;;;;5077346;28;20206;-69
2021/01/08 11:36:31;;;;;;;7.37;5.67;;;2.40;99.90;;;;;;5075969;28;20464;-68
2021/01/08 11:38:58;;;;;;;7.57;4.70;;;2.50;99.90;;;;;;5077887;28;20458;-68
2021/01/08 11:41:25;;;;;;;8.17;5.43;;;2.50;99.90;;;;;;5074368;28;20301;-68
2021/01/08 11:43:51;;;;;;;14.47;8.27;;;2.50;99.90;;;;;;5103434;28;20452;-68
2021/01/08 11:46:21;;;;;;;22.30;11.73;;;2.60;99.90;;;;;;5095046;28;20452;-68
2021/01/08 11:48:51;;;;;;;21.50;9.13;;;2.60;99.90;;;;;;5069516;28;20222;-68
2021/01/08 11:51:24;;;;;;;11.20;6.40;;;2.60;99.90;;;;;;5077204;28;20787;-67
2021/01/08 11:53:52;;;;;;;14.83;7.77;;;2.60;99.90;;;;;;5094338;28;20463;-67
2021/01/08 11:56:25;;;;;;;34.83;17.17;;;2.60;99.90;;;;;;5077536;28;20519;-68
2021/01/08 11:58:53;;;;;;;40.27;20.07;;;2.60;99.90;;;;;;5076458;28;20461;-68
2021/01/08 12:01:25;;;;;;;43.80;22.07;;;2.60;99.90;;;;;;5067168;28;20459;-68
2021/01/08 12:03:52;;;;;;;49.77;26.97;;;2.60;99.90;;;;;;5068886;28;20452;-68
2021/01/08 12:06:23;;;;;;;41.53;25.17;;;2.70;99.90;;;;;;5092586;28;20594;-68
2021/01/08 12:08:49;;;;;;;42.10;20.47;;;2.70;99.90;;;;;;5090891;28;20461;-68
2021/01/08 12:11:15;;;;;;;46.00;25.17;;;2.70;99.90;;;;;;5090262;28;20453;-68
2021/01/08 12:13:42;;;;;;;43.17;24.00;;;2.70;99.90;;;;;;5062442;28;20221;-68
2021/01/08 12:16:08;;;;;;;36.50;20.07;;;2.70;99.90;;;;;;5074047;28;20234;-69
2021/01/08 12:18:34;;;;;;;27.53;15.70;;;2.80;99.90;;;;;;5077836;28;20487;-68
2021/01/08 12:21:00;;;;;;;47.73;23.00;;;2.80;99.90;;;;;;5077286;28;20484;-68
2021/01/08 12:23:25;;;;;;;33.83;19.20;;;2.80;99.90;;;;;;5067082;28;20247;-68
2021/01/08 12:25:51;;;;;;;25.20;11.90;;;2.80;99.90;;;;;;5077193;28;20819;-68
2021/01/08 12:28:17;;;;;;;30.47;15.77;;;2.80;99.90;;;;;;5059501;28;20313;-68
2021/01/08 12:30:44;;;;;;;22.40;16.70;;;2.80;99.90;;;;;;5074874;28;20259;-68
2021/01/08 12:33:09;;;;;;;16.93;11.40;;;2.80;99.90;;;;;;5094372;28;20221;-69
2021/01/08 12:35:35;;;;;;;12.60;9.03;;;2.80;99.90;;;;;;5075359;28;20456;-68
2021/01/08 12:38:01;;;;;;;12.43;7.77;;;2.80;99.90;;;;;;5076496;28;20222;-68
2021/01/08 12:40:27;;;;;;;8.97;6.57;;;2.90;99.90;;;;;;5094025;28;20241;-68
2021/01/08 12:42:53;;;;;;;8.50;5.63;;;2.80;99.90;;;;;;5075209;27;20218;-68
2021/01/08 12:45:21;;;;;;;9.00;5.37;;;2.90;99.90;;;;;;5043103;28;20245;-68
2021/01/08 12:47:46;;;;;;;8.30;5.60;;;2.90;99.90;;;;;;5089599;28;20463;-69
2021/01/08 12:50:13;;;;;;;6.97;4.60;;;2.90;99.90;;;;;;5076996;28;20551;-69
2021/01/08 12:52:39;;;;;;;8.37;5.57;;;2.90;99.90;;;;;;5071835;28;20280;-68
2021/01/08 12:55:06;;;;;;;7.87;6.00;;;2.90;99.90;;;;;;5076485;28;20976;-68
2021/01/08 12:57:31;;;;;;;10.30;6.80;;;2.90;99.90;;;;;;5093955;28;20228;-68
2021/01/08 12:59:57;;;;;;;9.10;6.33;;;2.90;99.90;;;;;;5076144;28;20454;-68